Stolt Jade — ZCSQ4 — position and weather

sailwx.info

Track history (hours):
 
Tides and Currents Weather Stations Pressure Air Temp Water Temp Dewpoint Dewpoint Depression Visibility Wind Speed Wind Dir Waves Ship Positions

Stolt Jade

Last reported at 2016-Jul-23 03:22 UTC. Time now 2016-Jul-29 10:06 UTC.
Position N 34°07' E 134°57'.

Length 175 m; draft 10.6 m.

Type: Ship (hazmat cat B). MMSI: 319439000.

Date/timePositionNaut miles runAvg speedWind from/ knotsBaromVisibWave heightAir tempDewpointWater temp
2016-Jul-23 03:22N 34°07' E 134°57'1212.8
2016-Jul-23 02:28N 34°19' E 134°59'1213.6
2016-Jul-23 01:33N 34°28' E 135°08'1413.7
2016-Jul-23 00:33N 34°37' E 135°21'4 0.2
2016-Jul-22 02:33N 34°39' E 135°25'6 5.6
2016-Jul-22 01:33N 34°36' E 135°19'0 0.1
2016-Jul-22 00:28N 34°36' E 135°19'0 0.1
2016-Jul-21 23:28N 34°36' E 135°19'0 0.0
2016-Jul-21 21:28N 34°36' E 135°19'0 0.0
2016-Jul-21 20:28N 34°36' E 135°19'0 0.0
2016-Jul-21 19:22N 34°36' E 135°19'0 0.0
2016-Jul-21 18:16N 34°36' E 135°19'0 0.0
2016-Jul-21 17:28N 34°36' E 135°19'0 0.0
2016-Jul-21 16:28N 34°36' E 135°19'0 0.0
2016-Jul-21 15:28N 34°36' E 135°19'0 0.0
2016-Jul-21 14:28N 34°36' E 135°19'0 0.0
2016-Jul-21 13:28N 34°36' E 135°19'0 0.1
2016-Jul-21 12:10N 34°36' E 135°19'2 2.7
2016-Jul-21 11:33N 34°38' E 135°19'2 1.5
2016-Jul-21 10:30N 34°39' E 135°18'0 0.2
2016-Jul-21 09:30N 34°39' E 135°18'0 0.0
2016-Jul-21 08:30N 34°39' E 135°18'0 0.0
2016-Jul-21 07:18N 34°39' E 135°18'0 0.0
2016-Jul-21 06:30N 34°39' E 135°18'0 0.0
2016-Jul-21 05:30N 34°39' E 135°18'0 0.0
2016-Jul-21 04:30N 34°39' E 135°18'0 0.1
2016-Jul-21 03:30N 34°39' E 135°18'0 0.0
2016-Jul-21 02:24N 34°39' E 135°18'0 0.0
2016-Jul-21 01:24N 34°39' E 135°18'0 0.1
2016-Jul-21 00:30N 34°39' E 135°18'0 0.0
2016-Jul-20 23:30N 34°39' E 135°18'0 0.0
2016-Jul-20 22:24N 34°39' E 135°18'0 0.0
2016-Jul-20 21:24N 34°39' E 135°18'0 0.0
2016-Jul-20 20:30N 34°39' E 135°18'0 0.0
2016-Jul-20 19:30N 34°39' E 135°18'0 0.1
2016-Jul-20 18:30N 34°39' E 135°18'0 0.0
2016-Jul-20 17:30N 34°39' E 135°18'0 0.0
2016-Jul-20 16:30N 34°39' E 135°18'0 0.1
2016-Jul-20 15:33N 34°39' E 135°18'6 6.0
2016-Jul-20 14:33N 34°34' E 135°14'1312.6
2016-Jul-20 13:33N 34°24' E 135°05'1312.8
2016-Jul-20 12:33N 34°12' E 134°60'1312.6
2016-Jul-20 11:33N 33°59' E 134°60'21610.7
2016-Jul-19 15:24N 34°11' E 139°20'1213.8
2016-Jul-19 14:34N 34°19' E 139°29'1413.6
2016-Jul-19 13:33N 34°32' E 139°35'2813.8
2016-Jul-19 11:32N 34°59' E 139°41'1313.1
2016-Jul-19 10:33N 35°11' E 139°46'1212.1
2016-Jul-19 09:33N 35°23' E 139°42'5 4.5
2016-Jul-19 08:31N 35°27' E 139°45'0 0.1
2016-Jul-19 07:31N 35°27' E 139°45'0 0.0
2016-Jul-19 04:31N 35°27' E 139°45'0 0.1
2016-Jul-19 03:31N 35°27' E 139°45'0 0.0
2016-Jul-19 02:31N 35°27' E 139°45'0 0.0
2016-Jul-19 01:31N 35°27' E 139°45'1 1.4
2016-Jul-19 00:34N 35°26' E 139°45'10 9.8
2016-Jul-18 23:34N 35°16' E 139°46'1010.2
2016-Jul-18 22:34N 35°06' E 139°46'1111.2
2016-Jul-18 21:34N 34°55' E 139°42'1110.5
2016-Jul-18 20:32N 34°47' E 139°50'1110.9
2016-Jul-18 19:33N 34°42' E 140°01'1212.0
2016-Jul-18 18:33N 34°42' E 140°16'1212.2
2016-Jul-18 17:33N 34°42' E 140°31'  
Track history (hours):
 
Tides and Currents Weather Stations Pressure Air Temp Water Temp Dewpoint Dewpoint Depression Visibility Wind Speed Wind Dir Waves Ship Positions

Stolt Jade

Last reported at 2016-Jul-23 03:22 UTC. Time now 2016-Jul-29 10:06 UTC.
Position N 34°07' E 134°57'.

Length 175 m; draft 10.6 m.

Type: Ship (hazmat cat B). MMSI: 319439000.

Date/timePositionNaut miles runAvg speedWind from/ knotsBaromVisibWave heightAir tempDewpointWater temp
2016-Jul-23 03:22N 34°07' E 134°57'1212.8
2016-Jul-23 02:28N 34°19' E 134°59'1213.6
2016-Jul-23 01:33N 34°28' E 135°08'1413.7
2016-Jul-23 00:33N 34°37' E 135°21'4 0.2
2016-Jul-22 02:33N 34°39' E 135°25'6 5.6
2016-Jul-22 01:33N 34°36' E 135°19'0 0.1
2016-Jul-22 00:28N 34°36' E 135°19'0 0.1
2016-Jul-21 23:28N 34°36' E 135°19'0 0.0
2016-Jul-21 21:28N 34°36' E 135°19'0 0.0
2016-Jul-21 20:28N 34°36' E 135°19'0 0.0
2016-Jul-21 19:22N 34°36' E 135°19'0 0.0
2016-Jul-21 18:16N 34°36' E 135°19'0 0.0
2016-Jul-21 17:28N 34°36' E 135°19'0 0.0
2016-Jul-21 16:28N 34°36' E 135°19'0 0.0
2016-Jul-21 15:28N 34°36' E 135°19'0 0.0
2016-Jul-21 14:28N 34°36' E 135°19'0 0.0
2016-Jul-21 13:28N 34°36' E 135°19'0 0.1
2016-Jul-21 12:10N 34°36' E 135°19'2 2.7
2016-Jul-21 11:33N 34°38' E 135°19'2 1.5
2016-Jul-21 10:30N 34°39' E 135°18'0 0.2
2016-Jul-21 09:30N 34°39' E 135°18'0 0.0
2016-Jul-21 08:30N 34°39' E 135°18'0 0.0
2016-Jul-21 07:18N 34°39' E 135°18'0 0.0
2016-Jul-21 06:30N 34°39' E 135°18'0 0.0
2016-Jul-21 05:30N 34°39' E 135°18'0 0.0
2016-Jul-21 04:30N 34°39' E 135°18'0 0.1
2016-Jul-21 03:30N 34°39' E 135°18'0 0.0
2016-Jul-21 02:24N 34°39' E 135°18'0 0.0
2016-Jul-21 01:24N 34°39' E 135°18'0 0.1
2016-Jul-21 00:30N 34°39' E 135°18'0 0.0
2016-Jul-20 23:30N 34°39' E 135°18'0 0.0
2016-Jul-20 22:24N 34°39' E 135°18'0 0.0
2016-Jul-20 21:24N 34°39' E 135°18'0 0.0
2016-Jul-20 20:30N 34°39' E 135°18'0 0.0
2016-Jul-20 19:30N 34°39' E 135°18'0 0.1
2016-Jul-20 18:30N 34°39' E 135°18'0 0.0
2016-Jul-20 17:30N 34°39' E 135°18'0 0.0
2016-Jul-20 16:30N 34°39' E 135°18'0 0.1
2016-Jul-20 15:33N 34°39' E 135°18'6 6.0
2016-Jul-20 14:33N 34°34' E 135°14'1312.6
2016-Jul-20 13:33N 34°24' E 135°05'1312.8
2016-Jul-20 12:33N 34°12' E 134°60'1312.6
2016-Jul-20 11:33N 33°59' E 134°60'21610.7
2016-Jul-19 15:24N 34°11' E 139°20'1213.8
2016-Jul-19 14:34N 34°19' E 139°29'1413.6
2016-Jul-19 13:33N 34°32' E 139°35'2813.8
2016-Jul-19 11:32N 34°59' E 139°41'1313.1
2016-Jul-19 10:33N 35°11' E 139°46'1212.1
2016-Jul-19 09:33N 35°23' E 139°42'5 4.5
2016-Jul-19 08:31N 35°27' E 139°45'0 0.1
2016-Jul-19 07:31N 35°27' E 139°45'0 0.0
2016-Jul-19 04:31N 35°27' E 139°45'0 0.1
2016-Jul-19 03:31N 35°27' E 139°45'0 0.0
2016-Jul-19 02:31N 35°27' E 139°45'0 0.0
2016-Jul-19 01:31N 35°27' E 139°45'1 1.4
2016-Jul-19 00:34N 35°26' E 139°45'10 9.8
2016-Jul-18 23:34N 35°16' E 139°46'1010.2
2016-Jul-18 22:34N 35°06' E 139°46'1111.2
2016-Jul-18 21:34N 34°55' E 139°42'1110.5
2016-Jul-18 20:32N 34°47' E 139°50'1110.9
2016-Jul-18 19:33N 34°42' E 140°01'1212.0
2016-Jul-18 18:33N 34°42' E 140°16'1212.2
2016-Jul-18 17:33N 34°42' E 140°31'  

Dump ship's entire track history